sensor_id;sensor_type;location;lat;lon;timestamp;temperature;humidity
24176;DHT22;12324;48.146;11.502;2022-08-18T00:04:32;18.50;99.90
24176;DHT22;12324;48.146;11.502;2022-08-18T00:07:20;18.60;99.90
24176;DHT22;12324;48.146;11.502;2022-08-18T00:09:47;18.60;99.90
24176;DHT22;12324;48.146;11.502;2022-08-18T00:12:20;18.60;99.90
24176;DHT22;12324;48.146;11.502;2022-08-18T00:14:48;18.80;99.90
24176;DHT22;12324;48.146;11.502;2022-08-18T00:17:16;18.80;99.90
24176;DHT22;12324;48.146;11.502;2022-08-18T00:19:43;18.80;99.90
24176;DHT22;12324;48.146;11.502;2022-08-18T00:22:17;18.80;99.90
24176;DHT22;12324;48.146;11.502;2022-08-18T00:24:48;18.70;99.90
24176;DHT22;12324;48.146;11.502;2022-08-18T00:27:23;18.80;99.90
24176;DHT22;12324;48.146;11.502;2022-08-18T00:29:58;18.60;99.90
24176;DHT22;12324;48.146;11.502;2022-08-18T00:32:35;18.60;99.90
24176;DHT22;12324;48.146;11.502;2022-08-18T00:35:08;18.70;99.90
24176;DHT22;12324;48.146;11.502;2022-08-18T00:37:40;18.80;99.90
24176;DHT22;12324;48.146;11.502;2022-08-18T00:40:11;18.80;99.90
24176;DHT22;12324;48.146;11.502;2022-08-18T00:42:45;18.80;99.90
24176;DHT22;12324;48.146;11.502;2022-08-18T00:45:16;18.80;99.90
24176;DHT22;12324;48.146;11.502;2022-08-18T00:47:43;18.90;99.90
24176;DHT22;12324;48.146;11.502;2022-08-18T00:50:14;18.90;99.90
24176;DHT22;12324;48.146;11.502;2022-08-18T00:52:45;18.70;99.90
24176;DHT22;12324;48.146;11.502;2022-08-18T00:55:14;18.60;99.90
24176;DHT22;12324;48.146;11.502;2022-08-18T00:57:44;18.70;99.90
24176;DHT22;12324;48.146;11.502;2022-08-18T01:00:12;18.70;99.90
24176;DHT22;12324;48.146;11.502;2022-08-18T01:02:48;18.60;99.90
24176;DHT22;12324;48.146;11.502;2022-08-18T01:05:30;18.60;99.90
24176;DHT22;12324;48.146;11.502;2022-08-18T01:07:59;18.60;99.90
24176;DHT22;12324;48.146;11.502;2022-08-18T01:10:26;18.60;99.90
24176;DHT22;12324;48.146;11.502;2022-08-18T01:12:55;18.70;99.90
24176;DHT22;12324;48.146;11.502;2022-08-18T01:15:23;18.70;99.90
24176;DHT22;12324;48.146;11.502;2022-08-18T01:18:00;18.70;99.90
24176;DHT22;12324;48.146;11.502;2022-08-18T01:23:40;18.70;99.90
24176;DHT22;12324;48.146;11.502;2022-08-18T01:26:07;18.70;99.90
24176;DHT22;12324;48.146;11.502;2022-08-18T01:28:39;18.60;99.90
24176;DHT22;12324;48.146;11.502;2022-08-18T01:31:08;18.60;99.90
24176;DHT22;12324;48.146;11.502;2022-08-18T01:33:40;18.60;99.90
24176;DHT22;12324;48.146;11.502;2022-08-18T01:36:19;18.40;99.90
24176;DHT22;12324;48.146;11.502;2022-08-18T01:38:49;18.50;99.90
24176;DHT22;12324;48.146;11.502;2022-08-18T01:41:17;18.50;99.90
24176;DHT22;12324;48.146;11.502;2022-08-18T01:43:56;18.50;99.90
24176;DHT22;12324;48.146;11.502;2022-08-18T01:46:24;18.40;99.90
24176;DHT22;12324;48.146;11.502;2022-08-18T01:48:51;18.40;99.90
24176;DHT22;12324;48.146;11.502;2022-08-18T01:51:19;18.40;99.90
24176;DHT22;12324;48.146;11.502;2022-08-18T01:54:05;18.30;99.90
24176;DHT22;12324;48.146;11.502;2022-08-18T01:56:31;18.20;99.90
24176;DHT22;12324;48.146;11.502;2022-08-18T01:58:58;18.30;99.90
24176;DHT22;12324;48.146;11.502;2022-08-18T02:01:26;18.30;99.90
24176;DHT22;12324;48.146;11.502;2022-08-18T02:04:04;18.30;99.90
24176;DHT22;12324;48.146;11.502;2022-08-18T02:09:19;18.10;99.90
24176;DHT22;12324;48.146;11.502;2022-08-18T02:11:50;18.20;99.90
24176;DHT22;12324;48.146;11.502;2022-08-18T02:14:22;18.20;99.90
24176;DHT22;12324;48.146;11.502;2022-08-18T02:16:55;18.20;99.90
24176;DHT22;12324;48.146;11.502;2022-08-18T02:19:42;18.10;99.90
24176;DHT22;12324;48.146;11.502;2022-08-18T02:22:11;18.10;99.90
24176;DHT22;12324;48.146;11.502;2022-08-18T02:24:38;18.10;99.90
24176;DHT22;12324;48.146;11.502;2022-08-18T02:27:06;18.10;99.90
24176;DHT22;12324;48.146;11.502;2022-08-18T02:29:33;18.00;99.90
24176;DHT22;12324;48.146;11.502;2022-08-18T02:32:00;18.00;99.90
24176;DHT22;12324;48.146;11.502;2022-08-18T02:34:27;18.00;99.90
24176;DHT22;12324;48.146;11.502;2022-08-18T02:36:54;17.90;99.90
24176;DHT22;12324;48.146;11.502;2022-08-18T02:39:20;18.00;99.90
24176;DHT22;12324;48.146;11.502;2022-08-18T02:41:47;18.00;99.90
24176;DHT22;12324;48.146;11.502;2022-08-18T02:44:14;17.90;99.90
24176;DHT22;12324;48.146;11.502;2022-08-18T02:49:07;17.80;99.90
24176;DHT22;12324;48.146;11.502;2022-08-18T02:51:35;17.70;99.90
24176;DHT22;12324;48.146;11.502;2022-08-18T02:54:01;17.80;99.90
24176;DHT22;12324;48.146;11.502;2022-08-18T02:56:29;17.80;99.90
24176;DHT22;12324;48.146;11.502;2022-08-18T02:59:11;17.80;99.90
24176;DHT22;12324;48.146;11.502;2022-08-18T03:01:40;17.70;99.90
24176;DHT22;12324;48.146;11.502;2022-08-18T03:04:10;17.70;99.90
24176;DHT22;12324;48.146;11.502;2022-08-18T03:06:37;17.70;99.90
24176;DHT22;12324;48.146;11.502;2022-08-18T03:18:57;17.90;99.90
24176;DHT22;12324;48.146;11.502;2022-08-18T03:21:26;17.80;99.90
24176;DHT22;12324;48.146;11.502;2022-08-18T03:23:55;17.70;99.90
24176;DHT22;12324;48.146;11.502;2022-08-18T03:26:27;17.70;99.90
24176;DHT22;12324;48.146;11.502;2022-08-18T03:28:55;17.60;99.90
24176;DHT22;12324;48.146;11.502;2022-08-18T03:31:23;17.40;99.90
24176;DHT22;12324;48.146;11.502;2022-08-18T03:33:54;17.40;99.90
24176;DHT22;12324;48.146;11.502;2022-08-18T03:36:28;17.30;99.90
24176;DHT22;12324;48.146;11.502;2022-08-18T03:38:57;17.30;99.90
24176;DHT22;12324;48.146;11.502;2022-08-18T03:41:25;17.20;99.90
24176;DHT22;12324;48.146;11.502;2022-08-18T03:49:09;17.20;99.90
24176;DHT22;12324;48.146;11.502;2022-08-18T03:51:36;17.20;99.90
24176;DHT22;12324;48.146;11.502;2022-08-18T03:54:04;17.30;99.90
24176;DHT22;12324;48.146;11.502;2022-08-18T03:56:36;17.30;99.90
24176;DHT22;12324;48.146;11.502;2022-08-18T03:59:19;17.30;99.90
24176;DHT22;12324;48.146;11.502;2022-08-18T04:01:49;17.30;99.90
24176;DHT22;12324;48.146;11.502;2022-08-18T04:04:19;17.30;99.90
24176;DHT22;12324;48.146;11.502;2022-08-18T04:06:59;17.30;99.90
24176;DHT22;12324;48.146;11.502;2022-08-18T04:09:28;17.30;99.90
24176;DHT22;12324;48.146;11.502;2022-08-18T04:11:56;17.40;99.90
24176;DHT22;12324;48.146;11.502;2022-08-18T04:14:25;17.30;99.90
24176;DHT22;12324;48.146;11.502;2022-08-18T04:16:57;17.30;99.90
24176;DHT22;12324;48.146;11.502;2022-08-18T04:19:24;17.30;99.90
24176;DHT22;12324;48.146;11.502;2022-08-18T04:21:54;17.40;99.90
24176;DHT22;12324;48.146;11.502;2022-08-18T04:24:21;17.40;99.90
24176;DHT22;12324;48.146;11.502;2022-08-18T04:26:49;17.40;99.90
24176;DHT22;12324;48.146;11.502;2022-08-18T04:29:17;17.40;99.90
24176;DHT22;12324;48.146;11.502;2022-08-18T04:31:45;17.50;99.90
24176;DHT22;12324;48.146;11.502;2022-08-18T04:34:20;17.50;99.90
24176;DHT22;12324;48.146;11.502;2022-08-18T04:36:49;17.50;99.90
24176;DHT22;12324;48.146;11.502;2022-08-18T04:39:19;17.40;99.90
24176;DHT22;12324;48.146;11.502;2022-08-18T04:41:47;17.40;99.90
24176;DHT22;12324;48.146;11.502;2022-08-18T04:44:14;17.50;99.90
24176;DHT22;12324;48.146;11.502;2022-08-18T04:46:45;17.40;99.90
24176;DHT22;12324;48.146;11.502;2022-08-18T04:49:17;17.40;99.90
24176;DHT22;12324;48.146;11.502;2022-08-18T04:51:49;17.50;99.90
24176;DHT22;12324;48.146;11.502;2022-08-18T04:54:54;17.50;99.90
24176;DHT22;12324;48.146;11.502;2022-08-18T04:57:21;17.50;99.90
24176;DHT22;12324;48.146;11.502;2022-08-18T04:59:50;17.50;99.90
24176;DHT22;12324;48.146;11.502;2022-08-18T05:02:19;17.50;99.90
24176;DHT22;12324;48.146;11.502;2022-08-18T05:04:46;17.50;99.90
24176;DHT22;12324;48.146;11.502;2022-08-18T05:07:16;17.50;99.90
24176;DHT22;12324;48.146;11.502;2022-08-18T05:09:44;17.60;99.90
24176;DHT22;12324;48.146;11.502;2022-08-18T05:12:12;17.70;99.90
24176;DHT22;12324;48.146;11.502;2022-08-18T05:14:40;17.80;99.90
24176;DHT22;12324;48.146;11.502;2022-08-18T05:17:07;17.80;99.90
24176;DHT22;12324;48.146;11.502;2022-08-18T05:19:34;17.90;99.90
24176;DHT22;12324;48.146;11.502;2022-08-18T05:22:07;18.00;99.90
24176;DHT22;12324;48.146;11.502;2022-08-18T05:24:34;18.10;99.90
24176;DHT22;12324;48.146;11.502;2022-08-18T05:27:04;18.20;99.90
24176;DHT22;12324;48.146;11.502;2022-08-18T05:29:31;18.20;99.90
24176;DHT22;12324;48.146;11.502;2022-08-18T05:32:12;18.30;99.90
24176;DHT22;12324;48.146;11.502;2022-08-18T05:35:04;18.50;99.90
24176;DHT22;12324;48.146;11.502;2022-08-18T05:37:46;18.60;99.90
24176;DHT22;12324;48.146;11.502;2022-08-18T05:40:17;18.80;99.90
24176;DHT22;12324;48.146;11.502;2022-08-18T05:42:46;18.90;99.90
24176;DHT22;12324;48.146;11.502;2022-08-18T05:45:16;18.90;99.90
24176;DHT22;12324;48.146;11.502;2022-08-18T05:47:43;19.10;99.90
24176;DHT22;12324;48.146;11.502;2022-08-18T05:50:14;19.10;99.90
24176;DHT22;12324;48.146;11.502;2022-08-18T05:55:28;19.10;99.90
24176;DHT22;12324;48.146;11.502;2022-08-18T05:58:32;19.20;99.90
24176;DHT22;12324;48.146;11.502;2022-08-18T06:01:12;19.20;99.90
24176;DHT22;12324;48.146;11.502;2022-08-18T06:03:47;19.20;99.90
24176;DHT22;12324;48.146;11.502;2022-08-18T06:06:26;19.30;99.90
24176;DHT22;12324;48.146;11.502;2022-08-18T06:09:06;19.30;99.90
24176;DHT22;12324;48.146;11.502;2022-08-18T06:27:02;19.90;99.90
24176;DHT22;12324;48.146;11.502;2022-08-18T06:41:20;20.00;99.90
24176;DHT22;12324;48.146;11.502;2022-08-18T06:44:16;20.10;99.90
24176;DHT22;12324;48.146;11.502;2022-08-18T06:46:57;20.10;99.90
24176;DHT22;12324;48.146;11.502;2022-08-18T06:49:55;20.10;99.90
24176;DHT22;12324;48.146;11.502;2022-08-18T06:52:28;20.10;99.90
24176;DHT22;12324;48.146;11.502;2022-08-18T06:55:02;20.10;99.90
24176;DHT22;12324;48.146;11.502;2022-08-18T06:57:38;20.00;99.90
24176;DHT22;12324;48.146;11.502;2022-08-18T07:00:20;19.90;99.90
24176;DHT22;12324;48.146;11.502;2022-08-18T07:03:03;19.90;99.90
24176;DHT22;12324;48.146;11.502;2022-08-18T07:05:34;20.10;99.90
24176;DHT22;12324;48.146;11.502;2022-08-18T07:10:43;20.10;99.90
24176;DHT22;12324;48.146;11.502;2022-08-18T07:13:26;20.20;99.90
24176;DHT22;12324;48.146;11.502;2022-08-18T07:16:00;20.10;99.90
24176;DHT22;12324;48.146;11.502;2022-08-18T07:18:44;20.00;99.90
24176;DHT22;12324;48.146;11.502;2022-08-18T07:21:23;20.00;99.90
24176;DHT22;12324;48.146;11.502;2022-08-18T07:24:04;20.10;99.90
24176;DHT22;12324;48.146;11.502;2022-08-18T07:29:58;20.10;99.90
24176;DHT22;12324;48.146;11.502;2022-08-18T07:32:31;20.10;99.90
24176;DHT22;12324;48.146;11.502;2022-08-18T11:20:12;26.10;99.90
24176;DHT22;12324;48.146;11.502;2022-08-18T11:22:55;26.00;99.90
24176;DHT22;12324;48.146;11.502;2022-08-18T11:27:55;26.20;99.90
24176;DHT22;12324;48.146;11.502;2022-08-18T11:30:28;26.10;99.90
24176;DHT22;12324;48.146;11.502;2022-08-18T11:33:00;26.20;99.90
24176;DHT22;12324;48.146;11.502;2022-08-18T11:35:31;26.20;99.90
24176;DHT22;12324;48.146;11.502;2022-08-18T12:55:43;26.50;99.90
24176;DHT22;12324;48.146;11.502;2022-08-18T12:58:11;27.40;99.90
24176;DHT22;12324;48.146;11.502;2022-08-18T13:00:38;27.40;99.90
24176;DHT22;12324;48.146;11.502;2022-08-18T13:03:07;27.40;99.90
24176;DHT22;12324;48.146;11.502;2022-08-18T13:05:34;27.50;99.90
24176;DHT22;12324;48.146;11.502;2022-08-18T13:08:04;27.50;99.90
24176;DHT22;12324;48.146;11.502;2022-08-18T13:10:32;27.70;99.90
24176;DHT22;12324;48.146;11.502;2022-08-18T13:13:13;27.70;99.90
24176;DHT22;12324;48.146;11.502;2022-08-18T13:15:40;27.80;99.90
24176;DHT22;12324;48.146;11.502;2022-08-18T13:36:11;28.00;99.90
24176;DHT22;12324;48.146;11.502;2022-08-18T13:38:38;27.80;99.90
24176;DHT22;12324;48.146;11.502;2022-08-18T13:41:09;27.70;99.90
24176;DHT22;12324;48.146;11.502;2022-08-18T13:43:42;27.60;99.90
24176;DHT22;12324;48.146;11.502;2022-08-18T13:46:16;27.50;99.90
24176;DHT22;12324;48.146;11.502;2022-08-18T13:48:45;27.50;99.90
24176;DHT22;12324;48.146;11.502;2022-08-18T13:51:22;27.40;99.90
24176;DHT22;12324;48.146;11.502;2022-08-18T13:53:49;27.30;99.90
24176;DHT22;12324;48.146;11.502;2022-08-18T13:56:32;27.20;99.90
24176;DHT22;12324;48.146;11.502;2022-08-18T13:59:01;27.20;99.90
24176;DHT22;12324;48.146;11.502;2022-08-18T14:01:32;27.00;99.90
24176;DHT22;12324;48.146;11.502;2022-08-18T14:04:17;27.00;99.90
24176;DHT22;12324;48.146;11.502;2022-08-18T14:06:46;27.00;99.90
24176;DHT22;12324;48.146;11.502;2022-08-18T14:09:22;27.00;99.90
24176;DHT22;12324;48.146;11.502;2022-08-18T14:12:05;26.90;99.90
24176;DHT22;12324;48.146;11.502;2022-08-18T14:14:48;27.10;99.90
24176;DHT22;12324;48.146;11.502;2022-08-18T14:17:18;27.10;99.90
24176;DHT22;12324;48.146;11.502;2022-08-18T14:19:48;27.00;99.90
24176;DHT22;12324;48.146;11.502;2022-08-18T14:22:41;27.10;99.90
24176;DHT22;12324;48.146;11.502;2022-08-18T14:25:26;27.10;99.90
24176;DHT22;12324;48.146;11.502;2022-08-18T14:28:12;27.20;99.90
24176;DHT22;12324;48.146;11.502;2022-08-18T14:30:44;27.20;99.90
24176;DHT22;12324;48.146;11.502;2022-08-18T14:33:21;27.30;99.90
24176;DHT22;12324;48.146;11.502;2022-08-18T14:36:08;27.30;99.90
24176;DHT22;12324;48.146;11.502;2022-08-18T14:38:35;27.20;99.90
24176;DHT22;12324;48.146;11.502;2022-08-18T14:41:05;27.10;99.90
24176;DHT22;12324;48.146;11.502;2022-08-18T14:43:33;27.10;99.90
24176;DHT22;12324;48.146;11.502;2022-08-18T14:46:22;27.00;99.90
24176;DHT22;12324;48.146;11.502;2022-08-18T14:48:55;27.10;99.90
24176;DHT22;12324;48.146;11.502;2022-08-18T14:51:24;27.10;99.90
24176;DHT22;12324;48.146;11.502;2022-08-18T14:53:53;27.20;99.90
24176;DHT22;12324;48.146;11.502;2022-08-18T14:56:21;27.30;99.90
24176;DHT22;12324;48.146;11.502;2022-08-18T14:58:53;27.20;99.90
24176;DHT22;12324;48.146;11.502;2022-08-18T15:01:21;27.10;99.90
24176;DHT22;12324;48.146;11.502;2022-08-18T15:03:48;27.20;99.90
24176;DHT22;12324;48.146;11.502;2022-08-18T15:06:17;27.30;99.90
24176;DHT22;12324;48.146;11.502;2022-08-18T15:08:53;27.30;99.90
24176;DHT22;12324;48.146;11.502;2022-08-18T15:11:23;27.20;99.90
24176;DHT22;12324;48.146;11.502;2022-08-18T15:13:50;27.10;99.90
24176;DHT22;12324;48.146;11.502;2022-08-18T15:16:21;27.00;99.90
24176;DHT22;12324;48.146;11.502;2022-08-18T15:18:58;26.90;99.90
24176;DHT22;12324;48.146;11.502;2022-08-18T15:21:26;26.80;99.90
24176;DHT22;12324;48.146;11.502;2022-08-18T15:24:14;26.70;99.90
24176;DHT22;12324;48.146;11.502;2022-08-18T15:27:05;26.60;99.90
24176;DHT22;12324;48.146;11.502;2022-08-18T15:29:38;26.50;99.90
24176;DHT22;12324;48.146;11.502;2022-08-18T15:32:10;26.40;99.90
24176;DHT22;12324;48.146;11.502;2022-08-18T15:34:43;26.30;99.90
24176;DHT22;12324;48.146;11.502;2022-08-18T15:37:13;26.30;99.90
24176;DHT22;12324;48.146;11.502;2022-08-18T15:39:45;26.30;99.90
24176;DHT22;12324;48.146;11.502;2022-08-18T15:42:21;26.30;99.90
24176;DHT22;12324;48.146;11.502;2022-08-18T15:44:48;26.20;99.90
24176;DHT22;12324;48.146;11.502;2022-08-18T15:47:18;26.10;99.90
24176;DHT22;12324;48.146;11.502;2022-08-18T15:49:47;25.80;99.90
24176;DHT22;12324;48.146;11.502;2022-08-18T15:52:15;25.60;99.90
24176;DHT22;12324;48.146;11.502;2022-08-18T15:54:45;25.50;99.90
24176;DHT22;12324;48.146;11.502;2022-08-18T15:57:16;25.30;99.90
24176;DHT22;12324;48.146;11.502;2022-08-18T16:00:04;25.00;99.90
24176;DHT22;12324;48.146;11.502;2022-08-18T16:02:31;24.80;99.90
24176;DHT22;12324;48.146;11.502;2022-08-18T16:04:57;24.60;99.90
24176;DHT22;12324;48.146;11.502;2022-08-18T16:07:37;24.40;99.90
24176;DHT22;12324;48.146;11.502;2022-08-18T16:10:11;24.40;99.90
24176;DHT22;12324;48.146;11.502;2022-08-18T16:12:38;24.30;99.90
24176;DHT22;12324;48.146;11.502;2022-08-18T16:15:15;24.30;99.90
24176;DHT22;12324;48.146;11.502;2022-08-18T16:17:48;24.30;99.90
24176;DHT22;12324;48.146;11.502;2022-08-18T16:20:16;24.30;99.90
24176;DHT22;12324;48.146;11.502;2022-08-18T16:22:45;24.20;99.90
24176;DHT22;12324;48.146;11.502;2022-08-18T16:25:13;24.30;99.90
24176;DHT22;12324;48.146;11.502;2022-08-18T16:27:40;24.30;99.90
24176;DHT22;12324;48.146;11.502;2022-08-18T16:30:10;24.30;99.90
24176;DHT22;12324;48.146;11.502;2022-08-18T16:32:37;24.30;99.90
24176;DHT22;12324;48.146;11.502;2022-08-18T16:35:05;24.40;99.90
24176;DHT22;12324;48.146;11.502;2022-08-18T16:37:32;24.40;99.90
24176;DHT22;12324;48.146;11.502;2022-08-18T16:39:59;24.40;99.90
24176;DHT22;12324;48.146;11.502;2022-08-18T16:42:26;24.40;99.90
24176;DHT22;12324;48.146;11.502;2022-08-18T16:44:59;24.40;99.90
24176;DHT22;12324;48.146;11.502;2022-08-18T16:47:26;24.20;99.90
24176;DHT22;12324;48.146;11.502;2022-08-18T16:49:53;24.00;99.90
24176;DHT22;12324;48.146;11.502;2022-08-18T16:52:24;23.90;99.90
24176;DHT22;12324;48.146;11.502;2022-08-18T16:54:50;23.80;99.90
24176;DHT22;12324;48.146;11.502;2022-08-18T16:57:23;23.80;99.90
24176;DHT22;12324;48.146;11.502;2022-08-18T17:00:22;23.70;99.90
24176;DHT22;12324;48.146;11.502;2022-08-18T17:03:09;23.70;99.90
24176;DHT22;12324;48.146;11.502;2022-08-18T17:06:07;23.70;99.90
24176;DHT22;12324;48.146;11.502;2022-08-18T17:08:36;23.60;99.90
24176;DHT22;12324;48.146;11.502;2022-08-18T17:11:05;23.60;99.90
24176;DHT22;12324;48.146;11.502;2022-08-18T17:13:35;23.50;99.90
24176;DHT22;12324;48.146;11.502;2022-08-18T17:16:02;23.50;99.90
24176;DHT22;12324;48.146;11.502;2022-08-18T17:18:29;23.40;99.90
24176;DHT22;12324;48.146;11.502;2022-08-18T17:21:04;23.20;99.90
24176;DHT22;12324;48.146;11.502;2022-08-18T17:23:32;23.20;99.90
24176;DHT22;12324;48.146;11.502;2022-08-18T17:26:00;23.20;99.90
24176;DHT22;12324;48.146;11.502;2022-08-18T17:28:51;22.70;99.90
24176;DHT22;12324;48.146;11.502;2022-08-18T17:31:21;21.70;99.90
24176;DHT22;12324;48.146;11.502;2022-08-18T17:33:53;20.70;99.90
24176;DHT22;12324;48.146;11.502;2022-08-18T17:36:36;20.30;99.90
24176;DHT22;12324;48.146;11.502;2022-08-18T17:39:10;20.00;99.90
24176;DHT22;12324;48.146;11.502;2022-08-18T17:41:42;19.90;99.90
24176;DHT22;12324;48.146;11.502;2022-08-18T17:44:29;19.80;99.90
24176;DHT22;12324;48.146;11.502;2022-08-18T17:46:57;19.60;99.90
24176;DHT22;12324;48.146;11.502;2022-08-18T17:49:33;19.50;99.90
24176;DHT22;12324;48.146;11.502;2022-08-18T17:52:43;19.50;99.90
24176;DHT22;12324;48.146;11.502;2022-08-18T17:55:28;19.50;99.90
24176;DHT22;12324;48.146;11.502;2022-08-18T17:58:03;19.40;99.90
24176;DHT22;12324;48.146;11.502;2022-08-18T18:00:32;19.20;99.90
24176;DHT22;12324;48.146;11.502;2022-08-18T18:02:58;19.00;99.90
24176;DHT22;12324;48.146;11.502;2022-08-18T18:05:34;18.90;99.90
24176;DHT22;12324;48.146;11.502;2022-08-18T18:08:03;18.70;99.90
24176;DHT22;12324;48.146;11.502;2022-08-18T18:10:45;18.60;99.90
24176;DHT22;12324;48.146;11.502;2022-08-18T18:13:33;18.40;99.90
24176;DHT22;12324;48.146;11.502;2022-08-18T18:16:17;18.20;99.90
24176;DHT22;12324;48.146;11.502;2022-08-18T18:18:45;18.20;99.90
24176;DHT22;12324;48.146;11.502;2022-08-18T18:24:32;18.10;99.90
24176;DHT22;12324;48.146;11.502;2022-08-18T18:26:35;18.10;99.90
24176;DHT22;12324;48.146;11.502;2022-08-18T18:31:39;18.00;99.90
24176;DHT22;12324;48.146;11.502;2022-08-18T18:36:54;18.00;99.90
24176;DHT22;12324;48.146;11.502;2022-08-18T18:39:28;18.00;99.90
24176;DHT22;12324;48.146;11.502;2022-08-18T18:42:22;18.00;99.90
24176;DHT22;12324;48.146;11.502;2022-08-18T18:44:53;18.00;99.90
24176;DHT22;12324;48.146;11.502;2022-08-18T18:55:26;18.10;99.90
24176;DHT22;12324;48.146;11.502;2022-08-18T18:58:15;18.20;99.90
24176;DHT22;12324;48.146;11.502;2022-08-18T19:00:57;18.20;99.90
24176;DHT22;12324;48.146;11.502;2022-08-18T19:03:55;18.10;99.90
24176;DHT22;12324;48.146;11.502;2022-08-18T19:06:27;18.10;99.90
24176;DHT22;12324;48.146;11.502;2022-08-18T19:12:17;18.20;99.90
24176;DHT22;12324;48.146;11.502;2022-08-18T19:14:41;18.20;99.90
24176;DHT22;12324;48.146;11.502;2022-08-18T19:17:37;18.30;99.90
24176;DHT22;12324;48.146;11.502;2022-08-18T19:20:10;18.30;99.90
24176;DHT22;12324;48.146;11.502;2022-08-18T19:25:25;18.40;99.90
24176;DHT22;12324;48.146;11.502;2022-08-18T19:28:06;18.40;99.90
24176;DHT22;12324;48.146;11.502;2022-08-18T19:30:37;18.40;99.90
24176;DHT22;12324;48.146;11.502;2022-08-18T19:33:06;18.40;99.90
24176;DHT22;12324;48.146;11.502;2022-08-18T19:35:45;18.40;99.90
24176;DHT22;12324;48.146;11.502;2022-08-18T19:41:09;18.40;99.90
24176;DHT22;12324;48.146;11.502;2022-08-18T19:43:57;18.40;99.90
24176;DHT22;12324;48.146;11.502;2022-08-18T19:46:37;18.30;99.90
24176;DHT22;12324;48.146;11.502;2022-08-18T19:51:36;18.10;99.90
24176;DHT22;12324;48.146;11.502;2022-08-18T20:00:09;18.00;99.90
24176;DHT22;12324;48.146;11.502;2022-08-18T20:03:11;18.00;99.90
24176;DHT22;12324;48.146;11.502;2022-08-18T20:09:33;18.00;99.90
24176;DHT22;12324;48.146;11.502;2022-08-18T20:14:33;18.00;99.90
24176;DHT22;12324;48.146;11.502;2022-08-18T20:17:15;18.00;99.90
24176;DHT22;12324;48.146;11.502;2022-08-18T20:24:55;18.10;99.90
24176;DHT22;12324;48.146;11.502;2022-08-18T20:27:29;18.10;99.90
24176;DHT22;12324;48.146;11.502;2022-08-18T20:30:19;18.20;99.90
24176;DHT22;12324;48.146;11.502;2022-08-18T20:33:12;18.20;99.90
24176;DHT22;12324;48.146;11.502;2022-08-18T20:35:48;18.10;99.90
24176;DHT22;12324;48.146;11.502;2022-08-18T20:38:26;18.10;99.90
24176;DHT22;12324;48.146;11.502;2022-08-18T20:40:55;18.00;99.90
24176;DHT22;12324;48.146;11.502;2022-08-18T20:43:29;18.10;99.90
24176;DHT22;12324;48.146;11.502;2022-08-18T20:49:32;18.20;99.90
24176;DHT22;12324;48.146;11.502;2022-08-18T20:58:06;18.10;99.90
24176;DHT22;12324;48.146;11.502;2022-08-18T21:00:36;18.10;99.90
24176;DHT22;12324;48.146;11.502;2022-08-18T21:03:11;18.20;99.90
24176;DHT22;12324;48.146;11.502;2022-08-18T21:05:40;18.20;99.90
24176;DHT22;12324;48.146;11.502;2022-08-18T21:13:47;18.20;99.90
24176;DHT22;12324;48.146;11.502;2022-08-18T21:19:23;18.30;99.90
24176;DHT22;12324;48.146;11.502;2022-08-18T21:21:54;18.30;99.90
24176;DHT22;12324;48.146;11.502;2022-08-18T21:24:33;18.30;99.90
24176;DHT22;12324;48.146;11.502;2022-08-18T21:30:00;18.40;99.90
24176;DHT22;12324;48.146;11.502;2022-08-18T21:32:31;18.40;99.90
24176;DHT22;12324;48.146;11.502;2022-08-18T21:35:01;18.40;99.90
24176;DHT22;12324;48.146;11.502;2022-08-18T21:37:33;18.40;99.90
24176;DHT22;12324;48.146;11.502;2022-08-18T21:40:05;18.30;99.90
24176;DHT22;12324;48.146;11.502;2022-08-18T21:42:43;18.30;99.90
24176;DHT22;12324;48.146;11.502;2022-08-18T21:45:19;18.30;99.90
24176;DHT22;12324;48.146;11.502;2022-08-18T21:48:02;18.30;99.90
24176;DHT22;12324;48.146;11.502;2022-08-18T21:50:32;18.30;99.90
24176;DHT22;12324;48.146;11.502;2022-08-18T21:53:03;18.20;99.90
24176;DHT22;12324;48.146;11.502;2022-08-18T21:55:35;18.20;99.90
24176;DHT22;12324;48.146;11.502;2022-08-18T21:58:04;18.20;99.90
24176;DHT22;12324;48.146;11.502;2022-08-18T22:05:47;18.20;99.90
24176;DHT22;12324;48.146;11.502;2022-08-18T22:08:43;18.20;99.90
24176;DHT22;12324;48.146;11.502;2022-08-18T22:11:20;18.20;99.90
24176;DHT22;12324;48.146;11.502;2022-08-18T22:14:45;18.20;99.90
24176;DHT22;12324;48.146;11.502;2022-08-18T22:18:30;18.20;99.90
24176;DHT22;12324;48.146;11.502;2022-08-18T22:20:58;18.20;99.90
24176;DHT22;12324;48.146;11.502;2022-08-18T22:23:34;18.10;99.90
24176;DHT22;12324;48.146;11.502;2022-08-18T22:34:13;18.10;99.90
24176;DHT22;12324;48.146;11.502;2022-08-18T22:36:47;18.10;99.90
24176;DHT22;12324;48.146;11.502;2022-08-18T22:39:32;18.10;99.90
24176;DHT22;12324;48.146;11.502;2022-08-18T22:41:59;18.10;99.90
24176;DHT22;12324;48.146;11.502;2022-08-18T22:44:27;18.10;99.90
24176;DHT22;12324;48.146;11.502;2022-08-18T22:46:54;18.10;99.90
24176;DHT22;12324;48.146;11.502;2022-08-18T22:49:21;18.10;99.90
24176;DHT22;12324;48.146;11.502;2022-08-18T22:51:51;18.10;99.90
24176;DHT22;12324;48.146;11.502;2022-08-18T22:54:19;18.00;99.90
24176;DHT22;12324;48.146;11.502;2022-08-18T22:56:46;18.00;99.90
24176;DHT22;12324;48.146;11.502;2022-08-18T22:59:22;18.00;99.90
24176;DHT22;12324;48.146;11.502;2022-08-18T23:01:49;18.00;99.90
24176;DHT22;12324;48.146;11.502;2022-08-18T23:04:19;17.90;99.90
24176;DHT22;12324;48.146;11.502;2022-08-18T23:06:45;17.90;99.90
24176;DHT22;12324;48.146;11.502;2022-08-18T23:09:28;17.90;99.90
24176;DHT22;12324;48.146;11.502;2022-08-18T23:11:58;17.90;99.90
24176;DHT22;12324;48.146;11.502;2022-08-18T23:14:25;17.90;99.90
24176;DHT22;12324;48.146;11.502;2022-08-18T23:16:53;17.80;99.90
24176;DHT22;12324;48.146;11.502;2022-08-18T23:19:20;17.80;99.90
24176;DHT22;12324;48.146;11.502;2022-08-18T23:21:47;17.80;99.90
24176;DHT22;12324;48.146;11.502;2022-08-18T23:24:15;17.80;99.90
24176;DHT22;12324;48.146;11.502;2022-08-18T23:26:42;17.80;99.90
24176;DHT22;12324;48.146;11.502;2022-08-18T23:29:09;17.80;99.90
24176;DHT22;12324;48.146;11.502;2022-08-18T23:31:39;17.80;99.90
24176;DHT22;12324;48.146;11.502;2022-08-18T23:34:07;17.80;99.90
24176;DHT22;12324;48.146;11.502;2022-08-18T23:36:34;17.90;99.90
24176;DHT22;12324;48.146;11.502;2022-08-18T23:39:05;17.90;99.90